Time;durP1;ratioP1;P1;durP2;ratioP2;P2;SDS_P1;SDS_P2;PMS_P1;PMS_P2;Temp;Humidity;BMP_temperature;BMP_pressure;BME280_temperature;BME280_humidity;BME280_pressure;Samples;Min_cycle;Max_cycle;Signal;HPM_P1;HPM_P2
2021/04/28 00:02:13;;;;;;;10.00;7.95;;;7.40;89.10;;;;;;6229180;28;20456;-82
2021/04/28 00:05:14;;;;;;;11.02;7.63;;;7.60;91.00;;;;;;6228851;28;20060;-84
2021/04/28 00:08:14;;;;;;;12.60;8.30;;;7.40;90.80;;;;;;6212707;28;20037;-83
2021/04/28 00:11:15;;;;;;;9.98;8.00;;;7.60;91.10;;;;;;6229164;28;20029;-84
2021/04/28 00:14:16;;;;;;;12.55;7.07;;;7.90;90.90;;;;;;6228702;28;20039;-84
2021/04/28 00:17:16;;;;;;;9.40;7.60;;;7.40;90.70;;;;;;6211854;28;20064;-84
2021/04/28 00:20:17;;;;;;;11.85;9.15;;;8.60;91.50;;;;;;6212285;28;20028;-83
2021/04/28 00:23:18;;;;;;;11.80;8.13;;;7.90;91.30;;;;;;6227967;28;20049;-83
2021/04/28 00:26:18;;;;;;;17.45;8.05;;;8.20;91.60;;;;;;6212742;28;20043;-84
2021/04/28 00:29:19;;;;;;;10.10;7.95;;;7.80;91.10;;;;;;6228585;28;20030;-83
2021/04/28 00:32:19;;;;;;;11.98;7.93;;;7.60;91.30;;;;;;6228665;28;20071;-85
2021/04/28 00:35:20;;;;;;;10.85;8.10;;;7.70;91.90;;;;;;6211852;28;20025;-85
2021/04/28 00:38:21;;;;;;;11.07;8.38;;;7.10;91.80;;;;;;6244667;28;20040;-84
2021/04/28 00:41:22;;;;;;;10.68;7.75;;;9.40;92.70;;;;;;6212050;28;20372;-83
2021/04/28 00:44:22;;;;;;;11.68;8.75;;;7.20;92.30;;;;;;6211404;28;20411;-84
2021/04/28 00:47:23;;;;;;;14.52;8.98;;;7.60;92.50;;;;;;6227812;28;20087;-81
2021/04/28 00:50:33;;;;;;;13.07;8.30;;;8.00;92.60;;;;;;6228129;28;20065;-82
2021/04/28 00:53:34;;;;;;;12.00;8.30;;;7.60;91.90;;;;;;6227893;28;20030;-82
2021/04/28 00:56:34;;;;;;;13.13;9.43;;;7.10;91.90;;;;;;6211088;28;20056;-85
2021/04/28 00:59:36;;;;;;;14.60;8.43;;;7.70;91.80;;;;;;6227560;28;20036;-86
2021/04/28 01:02:37;;;;;;;16.35;8.48;;;7.40;91.70;;;;;;6211490;28;20387;-83
2021/04/28 01:05:38;;;;;;;10.90;7.95;;;7.00;91.90;;;;;;6211117;28;20045;-85
2021/04/28 01:08:39;;;;;;;10.55;8.13;;;7.20;99.20;;;;;;6210977;28;20037;-82
2021/04/28 01:11:39;;;;;;;11.88;8.57;;;7.00;92.80;;;;;;6211141;28;20456;-83
2021/04/28 01:14:40;;;;;;;12.02;9.23;;;7.00;93.20;;;;;;6227216;28;20038;-82
2021/04/28 01:17:41;;;;;;;13.40;8.55;;;7.00;93.40;;;;;;6227268;28;20099;-85
2021/04/28 01:20:41;;;;;;;11.52;8.25;;;7.90;93.70;;;;;;6210976;28;20463;-84
2021/04/28 01:23:42;;;;;;;12.85;8.98;;;7.20;93.30;;;;;;6210975;28;20045;-84
2021/04/28 01:26:43;;;;;;;11.13;8.63;;;;;;;;;;6243488;28;20108;-85
2021/04/28 01:29:44;;;;;;;11.50;8.20;;;7.20;99.90;;;;;;6210726;28;20025;-85
2021/04/28 01:32:46;;;;;;;12.27;9.07;;;7.10;92.30;;;;;;6210724;28;20033;-84
2021/04/28 01:35:47;;;;;;;15.02;9.23;;;7.20;92.80;;;;;;6210587;28;20036;-83
2021/04/28 01:38:50;;;;;;;13.43;9.13;;;7.60;93.20;;;;;;6210161;28;20037;-84
2021/04/28 01:41:51;;;;;;;14.40;8.98;;;7.60;92.90;;;;;;6227015;28;20128;-85
2021/04/28 01:44:51;;;;;;;13.80;9.23;;;7.20;93.30;;;;;;6226413;28;20053;-83
2021/04/28 01:47:52;;;;;;;14.63;8.90;;;7.60;93.40;;;;;;6210264;28;20026;-84
2021/04/28 01:50:53;;;;;;;11.63;9.02;;;7.20;93.90;;;;;;6209800;28;20068;-84
2021/04/28 01:53:54;;;;;;;12.38;9.52;;;;;;;;;;6226426;28;20038;-84
2021/04/28 01:56:54;;;;;;;13.40;9.00;;;6.80;92.70;;;;;;6225986;28;20026;-85
2021/04/28 01:59:55;;;;;;;12.95;9.30;;;6.80;99.90;;;;;;6210015;28;20464;-82
2021/04/28 02:02:56;;;;;;;13.02;9.27;;;6.50;99.90;;;;;;6242598;28;20053;-82
2021/04/28 02:05:59;;;;;;;14.18;9.93;;;6.30;99.90;;;;;;6209607;28;20127;-82
2021/04/28 02:08:59;;;;;;;14.13;9.95;;;6.20;99.90;;;;;;6208882;28;20040;-83
2021/04/28 02:12:00;;;;;;;15.07;10.23;;;6.40;99.90;;;;;;6209264;28;20464;-84
2021/04/28 02:15:01;;;;;;;16.33;9.65;;;6.30;99.90;;;;;;6209571;28;20040;-83
2021/04/28 02:18:03;;;;;;;13.07;9.65;;;6.10;99.90;;;;;;6226302;28;20044;-83
2021/04/28 02:21:04;;;;;;;14.02;9.80;;;6.20;99.90;;;;;;6209872;28;20124;-83
2021/04/28 02:24:06;;;;;;;16.92;10.07;;;6.30;99.90;;;;;;6209522;28;20041;-83
2021/04/28 02:27:08;;;;;;;17.30;9.52;;;;;;;;;;6209631;28;20075;-84
2021/04/28 02:30:10;;;;;;;12.02;9.57;;;6.20;99.90;;;;;;6225565;28;20542;-84
2021/04/28 02:33:11;;;;;;;12.05;9.23;;;;;;;;;;6225797;28;20025;-82
2021/04/28 02:36:12;;;;;;;13.93;10.38;;;;;;;;;;6225901;28;20403;-84
2021/04/28 02:39:21;;;;;;;13.57;10.13;;;5.80;99.90;;;;;;6241740;28;20084;-82
2021/04/28 02:42:22;;;;;;;19.02;10.70;;;;;;;;;;6225910;28;20022;-84
2021/04/28 02:45:23;;;;;;;15.73;10.80;;;6.10;99.90;;;;;;6241339;28;20061;-84
2021/04/28 02:48:23;;;;;;;18.38;10.88;;;7.20;97.80;;;;;;6209109;28;20034;-83
2021/04/28 02:51:27;;;;;;;16.73;10.40;;;6.50;97.50;;;;;;6209098;28;20029;-84
2021/04/28 02:54:28;;;;;;;16.55;10.40;;;6.60;97.00;;;;;;6209312;28;20049;-83
2021/04/28 02:57:28;;;;;;;20.73;11.10;;;7.10;96.90;;;;;;6208791;28;20613;-83
2021/04/28 03:00:29;;;;;;;13.55;9.98;;;6.60;96.90;;;;;;6209336;28;20033;-85
2021/04/28 03:03:30;;;;;;;15.52;10.45;;;6.50;96.90;;;;;;6208879;28;20029;-84
2021/04/28 03:06:30;;;;;;;16.80;10.88;;;6.50;97.20;;;;;;6208866;28;20026;-85
2021/04/28 03:09:31;;;;;;;16.08;10.27;;;6.50;97.50;;;;;;6208735;28;20463;-84
2021/04/28 03:12:32;;;;;;;15.13;10.00;;;6.40;97.50;;;;;;6225376;28;20030;-84
2021/04/28 03:15:32;;;;;;;14.85;10.75;;;6.80;97.30;;;;;;6208645;28;20029;-82
2021/04/28 03:18:33;;;;;;;14.60;11.38;;;6.60;97.20;;;;;;6241913;28;20029;-84
2021/04/28 03:21:45;;;;;;;16.58;10.65;;;6.70;97.30;;;;;;6227624;28;20094;-83
2021/04/28 03:24:48;;;;;;;17.05;11.30;;;6.50;97.20;;;;;;6213491;28;20091;-83
2021/04/28 03:27:49;;;;;;;18.45;11.90;;;6.80;97.60;;;;;;6213878;28;20046;-82
2021/04/28 03:30:50;;;;;;;17.10;11.10;;;6.40;97.80;;;;;;6213578;28;20116;-84
2021/04/28 03:33:50;;;;;;;15.52;11.60;;;5.80;99.90;;;;;;6213799;28;20030;-83
2021/04/28 03:36:51;;;;;;;19.02;12.40;;;5.90;99.90;;;;;;6213487;28;20570;-84
2021/04/28 03:39:51;;;;;;;16.02;11.77;;;6.30;98.90;;;;;;6229657;28;20443;-85
2021/04/28 03:42:52;;;;;;;17.33;12.25;;;6.00;99.90;;;;;;6213361;28;20120;-82
2021/04/28 03:45:53;;;;;;;16.00;11.18;;;6.20;99.20;;;;;;6229363;28;20037;-83
2021/04/28 03:48:54;;;;;;;16.80;10.93;;;5.80;98.70;;;;;;6213522;28;20112;-85
2021/04/28 03:51:54;;;;;;;14.60;11.38;;;6.20;99.40;;;;;;6212989;28;20063;-85
2021/04/28 03:54:55;;;;;;;19.58;11.85;;;;;;;;;;6229354;28;20057;-84
2021/04/28 03:57:56;;;;;;;17.50;11.68;;;6.00;97.30;;;;;;6229482;28;20025;-84
2021/04/28 04:00:56;;;;;;;17.83;11.48;;;6.00;98.50;;;;;;6213109;28;20510;-83
2021/04/28 04:03:57;;;;;;;18.98;12.27;;;6.00;99.20;;;;;;6245350;28;20026;-83
2021/04/28 04:06:58;;;;;;;19.98;12.15;;;6.20;99.30;;;;;;6229129;28;20064;-83
2021/04/28 04:09:58;;;;;;;18.70;12.30;;;7.80;99.70;;;;;;6213037;28;20044;-83
2021/04/28 04:12:59;;;;;;;16.27;11.23;;;6.90;99.40;;;;;;6229179;28;20388;-83
2021/04/28 04:16:00;;;;;;;22.23;14.30;;;;;;;;;;6212391;28;20112;-83
2021/04/28 04:19:00;;;;;;;18.48;14.13;;;5.70;97.70;;;;;;6228323;28;20017;-83
2021/04/28 04:22:01;;;;;;;18.13;13.73;;;5.80;99.90;;;;;;6228990;28;20037;-83
2021/04/28 04:25:03;;;;;;;17.65;13.35;;;6.00;99.80;;;;;;6211822;28;20064;-82
2021/04/28 04:28:04;;;;;;;21.08;14.23;;;5.80;99.90;;;;;;6228385;28;20468;-84
2021/04/28 04:31:05;;;;;;;19.10;12.27;;;5.80;99.90;;;;;;6211748;28;20040;-83
2021/04/28 04:34:05;;;;;;;20.52;15.10;;;6.70;99.90;;;;;;6210521;28;20040;-77
2021/04/28 04:37:06;;;;;;;21.98;13.50;;;;;;;;;;6246100;28;20027;-78
2021/04/28 04:40:08;;;;;;;16.92;11.95;;;5.80;98.10;;;;;;6244333;28;20429;-78
2021/04/28 04:43:08;;;;;;;18.65;13.95;;;5.80;99.30;;;;;;6244043;28;20049;-78
2021/04/28 04:46:09;;;;;;;16.95;12.77;;;7.10;99.90;;;;;;6244596;28;20065;-79
2021/04/28 04:49:09;;;;;;;18.95;13.05;;;6.60;99.70;;;;;;6244701;28;20033;-79
2021/04/28 04:52:12;;;;;;;19.10;12.75;;;6.60;99.90;;;;;;6244093;28;20087;-79
2021/04/28 04:55:13;;;;;;;20.48;12.95;;;6.50;98.40;;;;;;6242818;28;20025;-79
2021/04/28 04:58:13;;;;;;;17.88;12.77;;;6.80;97.70;;;;;;6245308;28;20037;-79
2021/04/28 05:01:14;;;;;;;22.60;12.63;;;7.80;98.00;;;;;;6244444;28;20030;-79
2021/04/28 05:04:15;;;;;;;18.63;12.43;;;7.20;97.60;;;;;;6245462;28;20077;-79
2021/04/28 05:07:15;;;;;;;18.17;14.00;;;7.70;97.20;;;;;;6211184;28;20033;-78
2021/04/28 05:10:16;;;;;;;21.98;13.20;;;8.00;96.80;;;;;;6227222;28;20120;-79
2021/04/28 05:13:16;;;;;;;16.30;12.48;;;8.50;96.40;;;;;;6243675;28;20032;-81
2021/04/28 05:16:17;;;;;;;18.38;13.38;;;8.90;99.90;;;;;;6244534;28;20036;-80
2021/04/28 05:19:18;;;;;;;16.02;12.45;;;;;;;;;;6210395;28;20034;-79
2021/04/28 05:22:23;;;;;;;15.70;12.02;;;9.10;92.10;;;;;;6243652;28;20026;-81
2021/04/28 05:25:25;;;;;;;14.93;11.80;;;9.20;93.70;;;;;;6227369;28;20049;-80
2021/04/28 05:28:25;;;;;;;16.55;12.45;;;9.30;93.90;;;;;;6211263;28;20383;-81
2021/04/28 05:31:26;;;;;;;17.85;11.30;;;9.50;93.30;;;;;;6226955;28;20034;-82
2021/04/28 05:34:26;;;;;;;20.25;14.45;;;9.80;93.20;;;;;;6243503;28;20033;-80
2021/04/28 05:37:27;;;;;;;18.08;12.77;;;;;;;;;;6245125;28;20104;-82
2021/04/28 05:40:28;;;;;;;17.70;12.90;;;10.40;89.50;;;;;;6242448;28;20109;-81
2021/04/28 05:43:29;;;;;;;16.23;13.18;;;10.80;91.20;;;;;;6226230;28;20103;-82
2021/04/28 05:46:30;;;;;;;19.63;13.85;;;;;;;;;;6242369;28;21029;-82
2021/04/28 05:49:31;;;;;;;15.45;12.18;;;11.20;85.50;;;;;;6226821;28;20048;-80
2021/04/28 05:52:32;;;;;;;16.77;11.82;;;11.50;89.00;;;;;;6226514;28;20053;-83
2021/04/28 05:55:32;;;;;;;16.13;12.18;;;12.40;92.80;;;;;;6240528;28;20026;-81
2021/04/28 05:58:33;;;;;;;15.32;11.75;;;12.60;84.00;;;;;;6226269;28;20111;-85
2021/04/28 06:01:34;;;;;;;18.10;12.98;;;13.30;80.90;;;;;;6226116;28;20033;-81
2021/04/28 06:04:44;;;;;;;13.93;10.90;;;14.00;77.00;;;;;;6206464;28;20064;-82
2021/04/28 06:07:44;;;;;;;17.75;12.77;;;14.50;89.20;;;;;;6242594;28;20033;-82
2021/04/28 06:10:45;;;;;;;17.52;12.23;;;14.40;75.90;;;;;;6209484;28;20028;-82
2021/04/28 06:13:47;;;;;;;13.65;10.88;;;14.90;75.10;;;;;;6242812;28;20043;-81
2021/04/28 06:16:47;;;;;;;17.03;12.73;;;15.30;73.70;;;;;;6224689;28;20025;-81
2021/04/28 06:19:48;;;;;;;16.70;11.82;;;15.70;72.50;;;;;;6241852;28;20095;-82
2021/04/28 06:22:48;;;;;;;11.93;10.27;;;15.80;71.60;;;;;;6225862;28;20025;-83
2021/04/28 06:25:49;;;;;;;17.13;11.57;;;16.10;94.40;;;;;;6225782;28;20138;-79
2021/04/28 06:28:50;;;;;;;16.40;10.70;;;16.30;82.70;;;;;;6243640;28;20394;-79
2021/04/28 06:31:50;;;;;;;16.40;11.02;;;16.60;93.70;;;;;;6241855;28;20033;-80
2021/04/28 06:34:51;;;;;;;13.82;11.18;;;16.90;82.10;;;;;;6242071;28;20052;-83
2021/04/28 06:37:52;;;;;;;15.93;11.05;;;16.90;66.10;;;;;;6240553;28;20026;-84
2021/04/28 06:40:52;;;;;;;12.85;10.38;;;17.30;91.30;;;;;;6225307;28;20033;-82
2021/04/28 06:43:53;;;;;;;13.75;10.85;;;18.50;76.10;;;;;;6225329;28;20488;-83
2021/04/28 06:46:53;;;;;;;15.45;10.98;;;18.00;88.60;;;;;;6208806;28;20836;-81
2021/04/28 06:49:55;;;;;;;17.05;11.25;;;18.30;62.50;;;;;;6225353;28;20029;-80
2021/04/28 06:52:56;;;;;;;13.60;10.68;;;;;;;;;;6208977;28;20037;-80
2021/04/28 06:55:56;;;;;;;29.10;20.95;;;18.50;83.30;;;;;;6241697;28;20434;-80
2021/04/28 06:58:57;;;;;;;12.60;8.90;;;19.30;83.70;;;;;;6242273;28;20033;-80
2021/04/28 07:01:58;;;;;;;12.95;10.30;;;;;;;;;;6241925;28;20068;-80
2021/04/28 07:04:59;;;;;;;19.60;10.43;;;;;;;;;;6224900;28;20045;-80
2021/04/28 07:08:00;;;;;;;11.75;9.02;;;;;;;;;;6241691;28;20514;-81
2021/04/28 07:11:01;;;;;;;16.70;11.18;;;;;;;;;;6242548;28;20026;-80
2021/04/28 07:14:02;;;;;;;13.70;10.10;;;20.70;80.10;;;;;;6242267;28;20100;-80
2021/04/28 07:17:03;;;;;;;11.45;9.73;;;;;;;;;;6241769;28;20025;-79
2021/04/28 07:20:04;;;;;;;14.85;9.30;;;21.00;57.00;;;;;;6242357;28;20562;-80
2021/04/28 07:23:05;;;;;;;17.63;9.65;;;21.00;48.40;;;;;;6241392;28;20135;-80
2021/04/28 07:26:08;;;;;;;13.98;10.45;;;21.00;48.20;;;;;;6242451;28;20045;-79
2021/04/28 07:29:08;;;;;;;13.27;9.70;;;21.30;48.80;;;;;;6241372;28;20032;-80
2021/04/28 07:32:09;;;;;;;12.13;10.40;;;21.50;47.20;;;;;;6241121;28;20033;-81
2021/04/28 07:35:11;;;;;;;16.25;10.15;;;21.70;46.10;;;;;;6241044;28;20041;-81
2021/04/28 07:38:12;;;;;;;12.00;9.50;;;21.50;44.30;;;;;;6224997;28;20058;-81
2021/04/28 07:41:12;;;;;;;12.77;8.77;;;22.30;44.80;;;;;;6224484;28;20438;-79
2021/04/28 07:44:14;;;;;;;13.57;9.30;;;22.60;44.10;;;;;;6242411;28;20477;-80
2021/04/28 07:47:15;;;;;;;14.07;9.88;;;22.90;42.50;;;;;;6242135;28;20037;-80
2021/04/28 07:50:16;;;;;;;15.63;9.77;;;22.50;42.50;;;;;;6241082;28;20040;-81
2021/04/28 07:53:16;;;;;;;14.15;8.68;;;22.30;43.20;;;;;;6224690;28;20431;-81
2021/04/28 07:56:17;;;;;;;12.25;9.60;;;22.30;42.50;;;;;;6224308;28;20034;-82
2021/04/28 07:59:18;;;;;;;14.45;8.88;;;22.60;43.00;;;;;;6224367;28;20041;-80
2021/04/28 08:02:19;;;;;;;13.45;9.48;;;23.00;42.90;;;;;;6224884;28;20057;-79
2021/04/28 08:05:19;;;;;;;14.10;10.10;;;23.50;42.80;;;;;;6223540;28;20051;-79
2021/04/28 08:08:20;;;;;;;11.25;8.73;;;23.20;41.70;;;;;;6225845;28;20049;-80
2021/04/28 08:11:21;;;;;;;12.40;8.85;;;23.40;42.50;;;;;;6245154;28;20021;-79
2021/04/28 08:14:21;;;;;;;14.48;9.73;;;24.30;42.90;;;;;;6245193;28;20033;-81
2021/04/28 08:17:22;;;;;;;14.15;9.05;;;24.50;42.70;;;;;;6246829;28;20460;-80
2021/04/28 08:20:22;;;;;;;12.82;8.90;;;24.70;43.50;;;;;;6246160;28;20116;-80
2021/04/28 08:23:29;;;;;;;10.10;7.53;;;25.00;41.90;;;;;;6245507;28;20040;-81
2021/04/28 08:26:30;;;;;;;15.57;8.57;;;25.40;42.50;;;;;;6212657;28;20041;-79
2021/04/28 08:29:31;;;;;;;11.30;9.30;;;;;;;;;;6246045;28;20076;-80
2021/04/28 08:32:32;;;;;;;12.97;8.13;;;26.00;55.30;;;;;;6244774;28;20029;-79
2021/04/28 08:35:32;;;;;;;11.57;8.77;;;26.00;39.10;;;;;;6228647;28;20365;-79
2021/04/28 08:38:33;;;;;;;11.83;8.93;;;25.60;40.60;;;;;;6212157;28;20017;-80
2021/04/28 08:41:36;;;;;;;10.55;8.48;;;25.60;40.10;;;;;;6228067;28;20451;-80
2021/04/28 08:44:37;;;;;;;11.45;8.90;;;25.60;40.80;;;;;;6227632;28;20053;-80
2021/04/28 08:47:39;;;;;;;11.15;8.13;;;25.90;40.40;;;;;;6227926;28;20644;-79
2021/04/28 08:50:39;;;;;;;16.15;9.77;;;25.90;40.70;;;;;;6244441;28;20129;-80
2021/04/28 08:53:40;;;;;;;10.70;8.47;;;25.90;41.00;;;;;;6245730;28;20029;-79
2021/04/28 08:56:42;;;;;;;12.43;8.73;;;25.90;41.80;;;;;;6227539;28;20060;-80
2021/04/28 08:59:43;;;;;;;12.82;8.93;;;26.00;40.90;;;;;;6228522;28;20033;-79
2021/04/28 09:02:54;;;;;;;14.07;9.03;;;26.20;40.40;;;;;;6227779;28;20044;-79
2021/04/28 09:05:55;;;;;;;11.87;9.50;;;26.50;40.40;;;;;;6243850;28;20045;-80
2021/04/28 09:08:56;;;;;;;14.83;9.20;;;26.80;40.90;;;;;;6210693;28;20468;-81
2021/04/28 09:11:58;;;;;;;14.90;9.68;;;26.60;40.80;;;;;;6244913;28;20554;-81
2021/04/28 09:14:59;;;;;;;11.23;9.38;;;26.70;40.80;;;;;;6227226;28;20120;-81
2021/04/28 09:18:00;;;;;;;13.50;8.80;;;26.90;39.60;;;;;;6211099;28;20492;-79
2021/04/28 09:21:00;;;;;;;14.37;9.20;;;27.10;40.00;;;;;;6227376;28;20034;-79
2021/04/28 09:24:16;;;;;;;14.13;9.67;;;27.10;41.40;;;;;;6227098;28;20071;-79
2021/04/28 09:27:34;;;;;;;13.43;9.10;;;27.30;39.50;;;;;;6226812;28;20045;-80
2021/04/28 09:30:35;;;;;;;15.88;8.82;;;27.30;40.00;;;;;;6244609;28;20076;-80
2021/04/28 09:33:45;;;;;;;12.40;9.03;;;27.40;39.50;;;;;;6227293;28;20080;-81
2021/04/28 09:36:46;;;;;;;14.90;9.32;;;27.70;39.20;;;;;;6243379;28;20113;-79
2021/04/28 09:39:48;;;;;;;14.00;10.03;;;27.90;38.60;;;;;;6241786;28;20029;-79
2021/04/28 09:42:56;;;;;;;14.65;8.52;;;27.50;38.00;;;;;;6226951;28;20028;-81
2021/04/28 09:45:57;;;;;;;13.15;9.27;;;27.50;37.90;;;;;;6226624;28;20449;-79
2021/04/28 09:49:02;;;;;;;11.80;9.67;;;27.50;37.20;;;;;;6241915;28;20041;-79
2021/04/28 09:52:03;;;;;;;15.77;10.20;;;27.20;37.40;;;;;;6210018;28;20087;-78
2021/04/28 09:55:11;;;;;;;14.00;10.30;;;27.10;39.80;;;;;;6243422;28;20041;-78
2021/04/28 09:58:13;;;;;;;16.30;10.38;;;27.00;38.70;;;;;;6243903;28;20026;-79
2021/04/28 10:01:29;;;;;;;11.40;9.63;;;27.10;40.00;;;;;;6226803;28;20028;-78
2021/04/28 10:04:29;;;;;;;15.00;10.15;;;27.20;38.70;;;;;;6227932;28;20072;-79
2021/04/28 10:07:30;;;;;;;14.53;10.87;;;27.40;40.00;;;;;;6242713;28;20029;-78
2021/04/28 10:10:31;;;;;;;13.40;10.20;;;27.00;40.30;;;;;;6242331;28;20471;-79
2021/04/28 10:13:31;;;;;;;13.83;10.13;;;26.60;40.90;;;;;;6242470;28;20034;-79
2021/04/28 10:16:32;;;;;;;16.80;10.40;;;26.50;42.10;;;;;;6225618;28;20495;-78
2021/04/28 10:19:33;;;;;;;10.37;9.10;;;26.50;41.10;;;;;;6242451;28;20029;-78
2021/04/28 10:22:34;;;;;;;11.82;8.85;;;26.70;40.60;;;;;;6242765;28;20026;-78
2021/04/28 10:25:35;;;;;;;12.87;10.27;;;26.70;42.20;;;;;;6242295;28;20130;-78
2021/04/28 10:28:35;;;;;;;13.60;9.63;;;26.90;41.00;;;;;;6243173;28;20080;-79
2021/04/28 10:31:38;;;;;;;12.50;8.27;;;26.70;72.60;;;;;;6240916;28;20553;-77
2021/04/28 10:34:49;;;;;;;11.43;9.10;;;26.40;41.80;;;;;;6225799;28;20064;-77
2021/04/28 10:37:51;;;;;;;11.32;8.15;;;26.40;40.40;;;;;;6209993;28;20029;-82
2021/04/28 10:40:52;;;;;;;10.50;8.32;;;26.40;74.40;;;;;;6225724;28;20475;-79
2021/04/28 10:43:53;;;;;;;10.25;7.97;;;26.90;42.70;;;;;;6224993;28;20057;-78
2021/04/28 10:47:36;;;;;;;14.13;8.43;;;26.10;75.40;;;;;;6220011;28;20187;-79
2021/04/28 10:50:45;;;;;;;11.55;8.50;;;25.80;73.90;;;;;;6248909;28;20048;-79
2021/04/28 10:53:45;;;;;;;13.57;8.90;;;26.30;43.50;;;;;;6224344;28;20087;-78
2021/04/28 10:57:06;;;;;;;10.87;8.63;;;26.30;52.90;;;;;;6237872;28;20026;-81
2021/04/28 11:00:33;;;;;;;12.18;8.65;;;26.60;55.40;;;;;;6205452;28;20026;-80
2021/04/28 11:03:53;;;;;;;14.93;7.50;;;26.50;44.10;;;;;;6238297;28;20559;-82
2021/04/28 11:06:54;;;;;;;10.60;6.45;;;26.30;41.00;;;;;;6206897;28;20033;-81
2021/04/28 11:10:26;;;;;;;9.40;6.30;;;26.50;43.40;;;;;;6240057;28;20060;-79
2021/04/28 11:13:27;;;;;;;;;;;25.70;41.20;;;;;;6239416;28;20480;-78
2021/04/28 11:16:41;;;;;;;8.90;6.90;;;24.80;44.80;;;;;;6237336;28;19963;-79
2021/04/28 11:19:43;;;;;;;10.13;6.75;;;24.70;43.30;;;;;;6240344;28;20056;-79
2021/04/28 11:22:43;;;;;;;11.07;6.65;;;24.70;59.20;;;;;;6224667;28;20578;-80
2021/04/28 11:25:44;;;;;;;10.63;6.50;;;24.20;44.30;;;;;;6226002;28;20037;-78
2021/04/28 11:28:48;;;;;;;10.13;6.00;;;24.20;46.10;;;;;;6244459;28;20547;-78
2021/04/28 11:31:50;;;;;;;8.10;5.30;;;24.80;47.70;;;;;;6224297;28;20478;-81
2021/04/28 11:34:52;;;;;;;;;;;25.40;47.20;;;;;;6224918;28;20078;-81
2021/04/28 11:38:13;;;;;;;9.63;5.57;;;25.70;47.20;;;;;;6237546;28;19920;-79
2021/04/28 11:41:17;;;;;;;9.38;5.65;;;26.10;39.30;;;;;;6240215;28;20043;-80
2021/04/28 11:44:18;;;;;;;6.35;5.00;;;26.00;39.10;;;;;;6225958;28;20439;-79
2021/04/28 11:47:21;;;;;;;4.90;4.30;;;25.80;41.40;;;;;;6244751;28;20160;-79
2021/04/28 11:50:21;;;;;;;6.05;4.13;;;25.90;44.40;;;;;;6229119;28;20024;-78
2021/04/28 11:53:22;;;;;;;8.17;4.10;;;25.50;41.20;;;;;;6226401;28;20953;-80
2021/04/28 11:56:36;;;;;;;7.53;4.30;;;25.10;53.90;;;;;;6226242;28;20060;-79
2021/04/28 11:59:37;;;;;;;8.88;4.57;;;24.80;39.50;;;;;;6245233;28;20140;-81
2021/04/28 12:02:38;;;;;;;6.50;4.60;;;24.10;43.80;;;;;;6229258;28;20415;-82
2021/04/28 12:05:39;;;;;;;8.57;5.30;;;23.90;44.30;;;;;;6244549;28;20060;-78
2021/04/28 12:08:40;;;;;;;5.57;4.07;;;23.40;44.50;;;;;;6227027;28;20037;-77
2021/04/28 12:11:41;;;;;;;5.95;4.03;;;23.30;44.50;;;;;;6228796;28;20052;-80
2021/04/28 12:14:43;;;;;;;5.50;4.40;;;23.70;45.20;;;;;;6228848;28;20025;-79
2021/04/28 12:17:45;;;;;;;5.93;4.35;;;24.70;45.70;;;;;;6245386;28;20464;-78
2021/04/28 12:20:46;;;;;;;9.73;5.03;;;24.90;45.60;;;;;;6228822;28;20435;-78
2021/04/28 12:23:58;;;;;;;7.77;5.23;;;24.80;42.70;;;;;;6244518;28;20033;-78
2021/04/28 12:27:26;;;;;;;7.57;4.28;;;25.10;41.40;;;;;;6228385;28;20074;-79
2021/04/28 12:30:29;;;;;;;7.18;3.97;;;25.10;38.50;;;;;;6243505;28;20382;-80
2021/04/28 12:33:30;;;;;;;6.97;4.70;;;25.20;40.10;;;;;;6228660;28;20059;-78
2021/04/28 12:36:30;;;;;;;10.00;4.57;;;25.50;41.20;;;;;;6228257;28;20029;-78
2021/04/28 12:39:31;;;;;;;7.73;3.83;;;25.20;42.10;;;;;;6227581;28;20060;-78
2021/04/28 12:42:34;;;;;;;11.07;4.77;;;25.20;42.60;;;;;;6244343;28;20032;-79
2021/04/28 12:45:35;;;;;;;20.85;4.15;;;25.50;44.30;;;;;;6244479;28;20415;-79
2021/04/28 12:48:52;;;;;;;6.47;3.90;;;25.20;44.40;;;;;;6211267;28;20034;-80
2021/04/28 12:51:57;;;;;;;6.35;4.30;;;25.10;58.50;;;;;;6211669;28;20109;-79
2021/04/28 12:54:57;;;;;;;8.90;4.63;;;25.30;60.70;;;;;;6227507;28;20033;-78
2021/04/28 12:58:03;;;;;;;16.63;4.57;;;25.30;44.10;;;;;;6227128;28;20494;-79
2021/04/28 13:01:07;;;;;;;9.30;4.45;;;25.50;42.80;;;;;;6229072;28;20025;-78
2021/04/28 13:04:20;;;;;;;14.20;3.80;;;25.40;43.70;;;;;;6227758;28;20045;-78
2021/04/28 13:07:22;;;;;;;8.93;4.00;;;25.30;44.10;;;;;;6245545;28;20029;-77
2021/04/28 13:10:23;;;;;;;5.13;4.00;;;24.70;44.60;;;;;;6243484;28;20124;-78
2021/04/28 13:13:56;;;;;;;5.10;4.30;;;24.40;44.10;;;;;;6227457;28;20040;-80
2021/04/28 13:16:57;;;;;;;7.38;3.83;;;23.90;40.50;;;;;;6245027;28;20465;-82
2021/04/28 13:20:15;;;;;;;9.40;3.80;;;23.50;44.90;;;;;;6210898;28;20037;-83
2021/04/28 13:23:17;;;;;;;8.95;4.25;;;23.60;46.90;;;;;;6243554;28;20087;-79
2021/04/28 13:26:17;;;;;;;;;;;24.00;45.00;;;;;;6227646;28;20041;-82
2021/04/28 13:29:18;;;;;;;7.47;3.85;;;23.20;47.00;;;;;;6243348;28;19913;-83
2021/04/28 13:32:31;;;;;;;9.90;4.15;;;23.10;48.50;;;;;;6210800;28;20030;-82
2021/04/28 13:35:32;;;;;;;7.82;4.60;;;23.00;44.50;;;;;;6243341;28;20124;-80
2021/04/28 13:38:49;;;;;;;8.30;4.20;;;23.00;49.20;;;;;;6226462;28;20412;-81
2021/04/28 13:42:02;;;;;;;5.68;4.72;;;23.00;46.10;;;;;;6243179;28;20154;-81
2021/04/28 13:45:03;;;;;;;8.13;4.30;;;22.90;45.10;;;;;;6244158;28;20060;-80
2021/04/28 13:48:05;;;;;;;7.47;4.23;;;23.10;48.20;;;;;;6242377;28;20036;-81
2021/04/28 13:51:06;;;;;;;6.63;4.15;;;23.50;47.40;;;;;;6226467;28;20032;-80
2021/04/28 13:54:07;;;;;;;7.23;4.47;;;23.90;48.30;;;;;;6242783;28;20534;-80
2021/04/28 13:57:08;;;;;;;7.72;3.90;;;23.80;46.50;;;;;;6242743;28;20260;-80
2021/04/28 14:00:10;;;;;;;7.68;4.43;;;23.90;49.70;;;;;;6242690;28;20491;-81
2021/04/28 14:03:10;;;;;;;6.85;4.47;;;23.50;46.20;;;;;;6226995;28;20032;-81
2021/04/28 14:06:12;;;;;;;9.13;5.50;;;23.30;49.00;;;;;;6241499;28;20487;-81
2021/04/28 14:09:14;;;;;;;;;;;23.30;49.50;;;;;;6226471;28;20068;-80
2021/04/28 14:12:14;;;;;;;7.35;4.63;;;23.10;49.20;;;;;;6242074;28;20286;-80
2021/04/28 14:15:15;;;;;;;7.75;5.15;;;23.00;50.10;;;;;;6226071;28;20029;-81
2021/04/28 14:18:15;;;;;;;6.47;4.75;;;22.90;51.50;;;;;;6226325;28;20036;-81
2021/04/28 14:21:16;;;;;;;6.95;5.20;;;22.80;50.70;;;;;;6210000;28;20151;-81
2021/04/28 14:24:17;;;;;;;10.95;6.15;;;22.60;50.30;;;;;;6243193;28;20033;-80
2021/04/28 14:27:18;;;;;;;7.47;4.82;;;22.70;50.50;;;;;;6225597;28;20033;-81
2021/04/28 14:30:21;;;;;;;7.43;5.22;;;22.50;53.30;;;;;;6226354;28;20041;-81
2021/04/28 14:33:22;;;;;;;8.07;4.93;;;22.50;51.20;;;;;;6226118;28;20395;-82
2021/04/28 14:36:23;;;;;;;9.55;5.25;;;22.30;51.90;;;;;;6226357;28;20075;-81
2021/04/28 14:39:23;;;;;;;10.60;5.40;;;22.10;52.50;;;;;;6226158;28;20447;-81
2021/04/28 14:42:24;;;;;;;9.55;5.80;;;22.10;53.80;;;;;;6209755;28;20032;-81
2021/04/28 14:45:25;;;;;;;8.13;5.32;;;21.60;53.80;;;;;;6225191;28;20084;-81
2021/04/28 14:48:25;;;;;;;11.30;5.60;;;21.20;53.40;;;;;;6225652;28;20022;-81
2021/04/28 14:51:26;;;;;;;9.20;5.22;;;21.10;54.00;;;;;;6225976;28;20518;-81
2021/04/28 14:54:26;;;;;;;9.82;4.95;;;20.80;54.00;;;;;;6220848;28;20088;-81
2021/04/28 14:57:29;;;;;;;7.70;5.20;;;20.60;53.70;;;;;;6224243;28;20029;-81
2021/04/28 15:00:29;;;;;;;8.32;4.75;;;20.50;52.20;;;;;;6239413;28;20547;-81
2021/04/28 15:03:30;;;;;;;7.10;4.90;;;;;;;;;;6209261;28;20112;-81
2021/04/28 15:06:31;;;;;;;13.25;5.18;;;;;;;;;;6243481;28;20099;-81
2021/04/28 15:09:32;;;;;;;9.55;5.10;;;20.70;63.80;;;;;;6242957;28;20090;-81
2021/04/28 15:12:34;;;;;;;8.02;4.70;;;20.70;83.50;;;;;;6241979;28;20083;-81
2021/04/28 15:15:34;;;;;;;6.60;4.80;;;20.60;67.70;;;;;;6225194;28;20075;-81
2021/04/28 15:18:35;;;;;;;13.20;8.65;;;20.40;67.60;;;;;;6245502;28;20423;-81
2021/04/28 15:21:40;;;;;;;6.78;5.95;;;20.50;69.10;;;;;;6213858;28;20028;-81
2021/04/28 15:24:40;;;;;;;8.05;4.65;;;20.50;70.10;;;;;;6230202;28;20041;-80
2021/04/28 15:27:41;;;;;;;6.38;5.45;;;;;;;;;;6230323;28;20029;-82
2021/04/28 15:30:42;;;;;;;7.35;4.72;;;;;;;;;;6229577;28;20064;-81
2021/04/28 15:33:43;;;;;;;6.32;4.57;;;;;;;;;;6242517;28;20033;-82
2021/04/28 15:36:44;;;;;;;6.72;5.05;;;19.90;68.60;;;;;;6235363;28;20060;-82
2021/04/28 15:39:45;;;;;;;6.57;5.30;;;19.70;59.90;;;;;;6219586;28;20041;-82
2021/04/28 15:42:45;;;;;;;8.65;5.30;;;19.70;61.00;;;;;;6229651;28;20509;-81
2021/04/28 15:45:46;;;;;;;13.95;5.13;;;19.70;60.70;;;;;;6228752;28;20128;-78
2021/04/28 15:48:46;;;;;;;9.57;5.90;;;19.50;61.10;;;;;;6246358;28;20037;-78
2021/04/28 15:51:47;;;;;;;6.93;5.07;;;19.50;60.40;;;;;;6213055;28;20492;-86